Hlavní strana
METAR-TAF:

METAR-TAF

Letiště :

Aklavik, Severozápadní teritoria, Kanada

zeměpisná šířka: 68-13N, zeměpisná délka: 135-00W, výška: 7 m

Aktuální stav počasí

Zpráva byla vytvořena před 13 hodinami a 24 minutami, v 15:36 UTC
Severozápadní vítr 12 kt s nárazy do 23 kt
Teplota 3°C
Vlhkost vzduchu 93%
Tlak 1003 hPa
Viditelnost: 9.7 km
Oblačno až skoro zataženo ve výšce 1200 ft
Zataženo ve výšce 1900 ft
slabý déšť, kouřmo

METAR: CYKD 171536Z 32012G23KT 6SM -RA BR BKN012 OVC019 03/02 A2963 RMK SF6SC2 VIS SE 2 SLP036

Čas: 23:00 (05:00 UTC)


TAF: chybějící

Stav a předpovědi počasí z více než 4 000 letišť (zprávy METAR a TAF).

Červené a žluté tečky na mapě představují dostupné meteorologické stanice.

Když kurzor umístíte na tečku, zobrazí se název stanice.

Pak kliknutím zobrazíte stav a předpověď počasí.

Chcete-li změnit mapu, kliknutím na zelené tlačítko se znaménkem +mapu přiblížíte, kliknutím na zelené tlačítko se znaménkem – mapu oddálíte a kliknutím na zelené šipky přejdete na sousední mapy.


METAR-TAF: